This is the latest recevied weather packets stored in our database for station/object SV9TNF-51. If no packets are shown the sender has not sent any weather packets the latest 10 day(s).
| Time | Temp. | Humidity | Pressure | Rain* | Wind** | Luminosity | Snow |
|---|---|---|---|---|---|---|---|
| 1788406443 | 23.89° C | 52% | 1009.5 hPa | 0 mm | 5.36 m/s, 331° | - | - |
| 1788406143 | 23.89° C | 62% | 1009.5 hPa | 0 mm | 5.81 m/s, 322° | - | - |
| 1788405843 | 23.89° C | 62% | 1009.5 hPa | 0 mm | 5.81 m/s, 337° | - | - |
| 1788405542 | 23.33° C | 59% | 1009.5 hPa | 0 mm | 6.71 m/s, 311° | - | - |
| 1788405242 | 23.89° C | 61% | 1009.5 hPa | 0 mm | 4.47 m/s, 319° | - | - |
| 1788404942 | 23.89° C | 58% | 1009.5 hPa | 0 mm | 3.58 m/s, 90° | - | - |
| 1788404642 | 23.89° C | 56% | 1009.5 hPa | 0 mm | 4.92 m/s, 332° | - | - |
| 1788404342 | 23.89° C | 57% | 1009.5 hPa | 0 mm | 4.02 m/s, 326° | - | - |
| 1788404043 | 23.89° C | 64% | 1009.5 hPa | 0 mm | 4.47 m/s, 342° | - | - |
| 1788403742 | 23.89° C | 68% | 1009.5 hPa | 0 mm | 4.02 m/s, 325° | - | - |
| 1788403442 | 24.44° C | 69% | 1009.5 hPa | 0 mm | 4.92 m/s, 335° | - | - |
| 1788403142 | 24.44° C | 68% | 1009.5 hPa | 0 mm | 4.92 m/s, 336° | - | - |
| 1788402842 | 23.89° C | 70% | 1009.5 hPa | 0 mm | 5.81 m/s, 329° | - | - |
| 1788402541 | 24.44° C | 72% | 1009.5 hPa | 0 mm | 4.92 m/s, 333° | - | - |
| 1788402242 | 23.89° C | 70% | 1009.5 hPa | 0 mm | 5.81 m/s, 322° | - | - |
| 1788401941 | 23.89° C | 70% | 1009.5 hPa | 0 mm | 3.58 m/s, 290° | - | - |
| 1788401641 | 24.44° C | 70% | 1009.5 hPa | 0 mm | 4.47 m/s, 333° | - | - |
| 1788401341 | 23.89° C | 67% | 1009.5 hPa | 0 mm | 4.02 m/s, 53° | - | - |
| 1788401041 | 23.89° C | 63% | 1009.5 hPa | 0 mm | 5.81 m/s, 323° | - | - |
| 1788400741 | 23.89° C | 59% | 1009.8 hPa | 0 mm | 2.68 m/s, 258° | - | - |
| 1788400441 | 23.33° C | 57% | 1009.8 hPa | 0 mm | 4.92 m/s, 334° | - | - |
| 1788400142 | 23.33° C | 55% | 1009.8 hPa | 0 mm | 4.02 m/s, 218° | - | - |
| 1788399841 | 23.33° C | 62% | 1009.8 hPa | 0 mm | 4.92 m/s, 319° | - | - |
| 1788399540 | 23.33° C | 59% | 1009.8 hPa | 0 mm | 4.92 m/s, 292° | - | - |
| 1788399240 | 23.33° C | 58% | 1009.8 hPa | 0 mm | 6.26 m/s, 315° | - | - |
* Rain latest hour (hover to see other rain measurements)
** Current wind speed in m/s (hover to see current wind gust speed)